createdAt,value
2023-02-16T00:02:01.139Z,52.40
2023-02-16T00:12:22.267Z,43.83
2023-02-16T00:22:24.467Z,53.85
2023-02-16T00:32:27.225Z,39.53
2023-02-16T00:42:33.018Z,40.58
2023-02-16T00:52:43.064Z,46.88
2023-02-16T01:02:47.614Z,33.33
2023-02-16T01:12:49.909Z,51.72
2023-02-16T01:22:52.366Z,46.40
2023-02-16T01:32:55.499Z,55.70
2023-02-16T01:43:04.267Z,51.72
2023-02-16T01:53:19.672Z,56.65
2023-02-16T02:03:46.586Z,49.63
2023-02-16T02:13:57.527Z,53.90
2023-02-16T02:24:22.008Z,47.80
2023-02-16T06:05:09.896Z,33.53
2023-02-16T06:15:12.346Z,43.38
2023-02-16T06:25:14.746Z,47.58
2023-02-16T06:35:17.005Z,52.08
2023-02-16T06:45:19.466Z,50.22
2023-02-16T06:55:21.774Z,55.38
2023-02-16T07:05:24.588Z,56.03
2023-02-16T07:15:26.952Z,61.53
2023-02-16T07:25:29.247Z,63.92
2023-02-16T07:35:31.416Z,66.15
2023-02-16T07:45:34.184Z,93.43
2023-02-16T07:55:41.324Z,85.50
2023-02-16T08:05:43.502Z,81.17
2023-02-16T08:15:45.779Z,107.90
2023-02-16T08:25:48.070Z,118.07
2023-02-16T08:35:50.505Z,112.43
2023-02-16T08:45:53.844Z,73.70
2023-02-16T08:55:57.740Z,59.00
2023-02-16T09:06:03.458Z,48.90
2023-02-16T09:16:09.858Z,55.17
2023-02-16T09:26:12.122Z,48.90
2023-02-16T09:36:14.392Z,54.22
2023-02-16T09:46:22.499Z,46.58
2023-02-16T09:56:40.321Z,52.38
2023-02-16T10:06:59.968Z,49.60
2023-02-16T10:17:06.805Z,40.95
2023-02-16T10:27:15.728Z,24.45
2023-02-16T10:37:32.908Z,37.97
2023-02-16T10:47:41.956Z,35.42
2023-02-16T10:57:50.661Z,38.03
2023-02-16T11:07:57.127Z,33.53
2023-02-16T11:18:08.286Z,46.95
2023-02-16T11:28:12.085Z,36.50
2023-02-16T11:38:29.770Z,38.75
2023-02-16T11:48:33.563Z,39.80
2023-02-16T11:58:35.728Z,29.65
2023-02-16T12:08:46.711Z,27.65
2023-02-16T12:19:21.770Z,25.80
2023-02-16T12:29:35.717Z,21.33
2023-02-16T12:39:53.025Z,21.73
2023-02-16T12:50:08.083Z,18.75
2023-02-16T13:00:32.193Z,16.95
2023-02-16T13:10:40.334Z,14.45
2023-02-16T13:20:48.788Z,15.27
2023-02-16T13:31:12.913Z,14.88
2023-02-16T13:41:23.907Z,9.25
2023-02-16T13:51:28.164Z,7.60
2023-02-16T14:01:38.967Z,6.95
2023-02-16T14:11:53.674Z,26.92
2023-02-16T14:21:56.021Z,11.30
2023-02-16T14:32:13.128Z,16.88
2023-02-16T14:42:28.312Z,14.55
2023-02-16T14:52:57.605Z,9.88
2023-02-16T15:03:21.038Z,13.02
2023-02-16T15:13:28.491Z,13.50
2023-02-16T15:23:34.941Z,12.40
2023-02-16T15:33:38.502Z,9.68
2023-02-16T15:43:43.467Z,9.70
2023-02-16T15:53:56.076Z,6.60
2023-02-16T16:04:18.681Z,8.07
2023-02-16T16:14:21.938Z,9.23
2023-02-16T16:24:39.154Z,7.45
2023-02-16T16:34:41.372Z,8.48
2023-02-16T16:44:59.616Z,8.32
2023-02-16T16:55:02.354Z,9.67
2023-02-16T17:05:05.933Z,9.75
2023-02-16T17:15:16.711Z,9.68
2023-02-16T17:25:19.434Z,7.68
2023-02-16T17:35:21.835Z,6.18
2023-02-16T17:45:24.053Z,6.90
2023-02-16T17:55:26.261Z,6.95
2023-02-16T18:05:28.539Z,6.97
2023-02-16T18:15:31.454Z,8.65
2023-02-16T18:25:33.710Z,5.47
2023-02-16T18:35:37.642Z,7.25
2023-02-16T18:45:41.777Z,5.72
2023-02-16T18:55:44.079Z,5.82
2023-02-16T19:05:46.526Z,5.57
2023-02-16T19:15:48.750Z,6.10
2023-02-16T19:25:51.020Z,5.72
2023-02-16T19:36:04.541Z,6.05
2023-02-16T19:46:08.029Z,5.22
2023-02-16T19:56:14.166Z,7.10
2023-02-16T20:06:18.579Z,7.57
2023-02-16T20:16:21.805Z,6.78
2023-02-16T20:26:27.310Z,7.97
2023-02-16T20:36:29.589Z,6.82
2023-02-16T20:46:32.151Z,6.35
2023-02-16T20:56:34.458Z,13.80
2023-02-16T21:06:37.227Z,19.38
2023-02-16T21:16:41.157Z,10.07
2023-02-16T21:26:43.780Z,8.55
2023-02-16T21:40:31.948Z,11.35
2023-02-16T21:50:39.098Z,13.07
2023-02-16T22:00:41.916Z,11.93
2023-02-16T22:10:44.364Z,14.45
2023-02-16T22:20:46.651Z,16.13
2023-02-16T22:30:48.913Z,14.93
2023-02-16T22:40:51.278Z,14.98
2023-02-16T22:51:00.611Z,14.27
2023-02-16T23:01:02.907Z,12.77
2023-02-16T23:11:05.402Z,14.98
2023-02-16T23:21:14.628Z,13.77
2023-02-16T23:31:17.364Z,14.35
2023-02-16T23:41:19.646Z,13.43
2023-02-16T23:51:21.937Z,13.25
